ESSB/BMA METAR and TAF weather

Enter ICAO airport designator
Station Type Date Time Source
ESSB METAR 2019/04/19 22:50 UTC NOAA

ESSB 192250Z AUTO 00000KT 9999 NCD 05/M00 Q1034


Station Type Date Time Source
ESSB Decoded METAR 2019/04/19 22:50 UTC NOAA

Stockholm / Bromma, Sweden (ESSB) 59-21N 017-57E 14M
Apr 19, 2019 - 06:50 PM EDT / 2019.04.19 2250 UTC
Wind: Calm:0
Visibility: greater than 7 mile(s):0
Temperature: 41 F (5 C)
Dew Point: 32 F (0 C)
Relative Humidity: 70%
Pressure (altimeter): 30.53 in. Hg (1034 hPa)
ob: ESSB 192250Z AUTO 00000KT 9999 NCD 05/M00 Q1034
cycle: 23

Station Type Date Time Source
ESSB TAF 2017/03/27 06:35 UTC NOAA

TAF ESSB 270530Z 2706/2724 27008KT CAVOK
BECMG 2710/2713 29015G25KT

Example: see airport list